Los Antiguos, Argentina
Current Conditions -  °F | °C
As of 1:00 PM on Sunday 23 Nov 2014 (Local Time) from SCBA Reporting Station
Broken Clouds Broken Clouds  
Wind Chill: 52°   Ceiling: 2700
Heat Index: 52°   Visibility: 6mi
Dew Point: 39°   Wind: 21mph
Humidity: 62%   Direction: 310°NW
Pressure: 29.5"   Gusts: NA
Location:  46.55°S, 71.62°W
Report Text: SCBA 231600Z 31018KT 9999 BKN027 SCT200 11/04 Q0999
Loading
Personal Weather Stations






























Interactive Weather Map New forecast layout! Learn more

10-Day Weather Forecast

Advertisements
Track Severe Weather on mobile